Flight Track Log - Related Links

Times and Time Zones

All times are in EDT time to prevent confusion due to time zone crossing. See the N825SD flight status page for this flight to view local times or setup timezone preferences in your user account.

Time Position Orientation Groundspeed Altitude Reporting Facility
EDT Latitude Longitude Course Direction KTS km/h feet Rate Location/Type
Sun 15:57:55 43.8786 -76.0783 196° South 163 303 4.100  Level Boston Center
Sun 15:58:55 43.8367 -76.0817 183° South 163 303 5.500 1.228 Climbing Boston Center
Sun 16:00:02 43.7953 -76.0761 174° South 174 322 6.700 1.125 Climbing Boston Center
Sun 16:01:03 43.7475 -76.0703 175° South 174 322 7.900 1.230 Climbing Boston Center
Sun 16:02:04 43.6997 -76.0647 175° South 179 332 9.200 1.119 Climbing Boston Center
Sun 16:03:01 43.6436 -76.0583 175° South 179 332 10.100 1.077 Climbing Boston Center
Sun 16:04:01 43.5897 -76.0494 173° South 190 352 11.300 1.190 Climbing Boston Center
Sun 16:05:02 43.5358 -76.0406 173° South 196 364 12.500 1.171 Climbing Boston Center
Sun 16:06:04 43.4797 -76.0372 178° South 196 364 13.700 958 Climbing Boston Center
Sun 16:07:01 43.4153 -76.0275 174° South 201 372 14.400 356 Climbing Boston Center
Sun 16:08:02 43.3489 -76.0181 174° South 217 402 14.400  Level Boston Center
Sun 16:09:02 43.2825 -76.0111 176° South 238 441 14.400  Level Boston Center
Sun 16:10:03 43.2139 -75.9986 172° South 244 452 14.400  Level Boston Center
Sun 16:11:03 43.1433 -75.9889 174° South 250 463 14.400  Level Boston Center
Sun 16:12:03 43.0769 -75.9794 174° South 250 463 14.400  Level Boston Center
Sun 16:13:01 43.0083 -75.9725 176° South 250 463 14.400  Level Boston Center
Sun 16:14:02 42.9378 -75.9628 174° South 250 463 14.400  Level Boston Center
Sun 16:16:03 42.8056 -75.9411 173° South 255 472 14.400  Level New York Center
Sun 16:17:03 42.7394 -75.9331 175° South 255 472 14.400  Level New York Center
Sun 16:18:03 42.6669 -75.9244 175° South 255 472 14.400  Level New York Center
Sun 16:19:03 42.5989 -75.9136 173° South 250 463 14.400 50 Level New York Center
Sun 16:20:03 42.5261 -75.9078 177° South 250 463 14.500 50 Climbing New York Center
Sun 16:21:03 42.4581 -75.8967 173° South 250 463 14.500  Level New York Center
Sun 16:22:03 42.3897 -75.8886 175° South 255 472 14.500  Level New York Center
Sun 16:23:03 42.3236 -75.8778 173° South 250 463 14.500  Level New York Center
Sun 16:24:03 42.2531 -75.8694 175° South 250 463 14.500  Level New York Center
Sun 16:25:03 42.1850 -75.8586 173° South 250 463 14.500  Level New York Center
Sun 16:26:03 42.1164 -75.8533 177° South 250 463 14.500  Level New York Center
Sun 16:27:03 42.0461 -75.8453 175° South 250 463 14.500  Level New York Center
Sun 16:28:03 41.9717 -75.8339 174° South 250 463 14.500  Level New York Center
Sun 16:29:03 41.9033 -75.8258 175° South 250 463 14.500  Level New York Center
Sun 16:30:03 41.8350 -75.8153 173° South 250 463 14.500  Level New York Center
Sun 16:31:03 41.7708 -75.8075 175° South 256 475 14.500  Level New York Center
Sun 16:32:03 41.7003 -75.7967 173° South 249 462 14.500  Level New York Center
Sun 16:33:03 41.6258 -75.7883 175° South 254 470 14.500  Level New York Center
Sun 16:34:03 41.5556 -75.7775 173° South 254 470 14.500  Level New York Center
Sun 16:35:03 41.4933 -75.7700 175° South 254 470 14.500  Level New York Center
Sun 16:36:03 41.4250 -75.7594 173° South 254 470 14.500  Level New York Center
Sun 16:37:03 41.3544 -75.7514 175° South 254 470 14.500  Level New York Center
Sun 16:38:03 41.2842 -75.7406 173° South 254 470 14.500  Level New York Center
Sun 16:39:03 41.2136 -75.7356 177° South 254 470 14.500  Level New York Center
Sun 16:40:03 41.1472 -75.7250 173° South 254 470 14.500  Level New York Center
Sun 16:41:03 41.0706 -75.7139 174° South 249 462 14.500  Level New York Center
Sun 16:42:03 41.0003 -75.7061 175° South 249 462 14.500  Level New York Center
Sun 16:43:03 40.9358 -75.6986 175° South 257 476 14.500 -200 Level New York Center
Sun 16:44:03 40.8653 -75.6908 175° South 257 476 14.100 -750 Descending New York Center
Sun 16:45:03 40.7886 -75.6825 175° South 257 476 13.000 -1.050 Descending New York Center
Sun 16:46:03 40.7183 -75.6722 174° South 257 476 12.000 -1.000 Descending New York Center
Sun 16:47:03 40.6497 -75.6644 175° South 252 467 11.000 -1.000 Descending New York Center
Sun 16:48:03 40.5897 -75.6547 173° South 252 467 10.000 -1.000 Descending New York Center
Sun 16:49:03 40.5150 -75.6467 175° South 252 467 9.000 -1.000 Descending New York Center
Sun 16:50:03 40.4467 -75.6392 175° South 252 467 8.000 -1.000 Descending New York Center
Sun 16:51:03 40.3803 -75.6317 175° South 246 455 7.000 -1.000 Descending New York Center
Sun 16:52:03 40.3222 -75.6222 173° South 246 455 6.000 -1.050 Descending New York Center
Sun 16:53:03 40.2497 -75.6144 175° South 246 455 4.900 -1.050 Descending New York Center
Sun 16:54:03 40.1872 -75.6100 177° South 236 438 3.900 -900 Descending New York Center
Sun 16:55:03 40.1289 -75.6086 179° South 217 402 3.100 -550 Descending New York Center
Sun 16:56:03 40.0761 -75.6267 195° South 207 383 2.800 -600 Descending New York Center
Sun 16:57:03 40.0233 -75.6392 190° South 207 383 1.900 -750 Descending New York Center
Sun 16:58:03 39.9864 -75.6314 171° South 171 317 1.300 -450 Descending New York Center
Sun 16:59:03 39.9664 -75.6056 135° Southeast 116 214 1.000 2.100 Descending New York Center
Sun 17:00:03 39.9425 -75.5822 143° Southeast 116 214 5.500 2.250 Climbing New York Center
Sun 17:01:03 39.9161 -75.5614 149° Southeast 116 214 5.500  Level New York Center
Sun 17:02:03 39.8919 -75.5381 143° Southeast 116 214 5.500  Level New York Center
Sun 17:03:03 39.8819 -75.5294 147° Southeast 116 214 5.500  Level New York Center
Sun 17:06:00 39.9861 -75.5485 348° North  Level FlightAware Approximate
Sun 17:13:00 39.9833 -75.5667 166° South  Level FlightAware Approximate
Sun 17:14:00 39.9901 -75.5819 166° South  Level Estimated

Login

Don't have an account? Register now (free) for customized features, flight alerts, and more!